McCloud, CA

5:39 PM PDT on August 27, 2014 (GMT -0700)
RAWS ASH CREEK CA US | Change Station
CLOSE
Current Station
Personal Weather Station
Location: McCloud, CA
Elevation: 3677 ft
Nearby Weather Stations

Elev 3677 ft 41.28 °N, 121.98 °W | Updated 39 minutes ago

Clear
Clear
89 °F
Feels Like 85 °F
N
5
Wind Variable Wind from SSW
Gusts 13.0 mph

Today
High -- | Low -- °F
--% Chance of Precip.
Yesterday
High -- | Low -- °F
Precip. -- in
6:30 AM 7:49 PM
Waxing Crescent, 5% visible
Pressure 30.05 in
Visibility 10.0 miles
Clouds Clear
Heat Index 85 °F
Dew Point 41 °F
Humidity 19%
Rainfall 0.00 in
Snow Depth Not available.
UV 3 out of 12
Pollen 8.50 out of 12
Air Quality Not available.
Flu Activity Not available.
METAR KMHS 272356Z AUTO 00000KT 10SM CLR 31/09 A3009 RMK AO2 SLP175 T03110094 10333 20261 56014

More Conditions Fewer Conditions

Pressure 30.05 in
Visibility 10.0 miles
Clouds Clear
Heat Index 85 °F
Dew Point 41 °F
Humidity 19%
Rainfall 0.00 in
Snow Depth Not available.
UV 3 out of 12
Pollen 8.50 out of 12
Air Quality Not available.
Flu Activity Not available.
METAR KMHS 272356Z AUTO 00000KT 10SM CLR 31/09 A3009 RMK AO2 SLP175 T03110094 10333 20261 56014

More Conditions Fewer Conditions

10-Day Weather Forecast

Almanac

Astronomy

Aug. 27, 2014 Rise Set
Actual Time 6:30 AM PDT 7:49 PM PDT
Civil Twilight 6:01 AM PDT 8:17 PM PDT
Nautical Twilight 5:26 AM PDT 8:52 PM PDT
Astronomical Twilight 4:50 AM PDT 9:28 PM PDT
Moon 8:32 AM PDT (8/27) 8:42 PM PDT (8/27)
Length of Visible Light 14h 16m
Length of Day
13h 19m
Tomorrow will be 2m 36s shorter.
Waxing Crescent, 5% of the Moon is Illuminated
Today
Waxing Crescent
Sep 2
First Quarter
Sep 8
Full
Sep 15
Last Quarter
Sep 24
New

Today's Extremes

State Highs State Lows

Community

WunderPhotos

Upload Photos

1,747,836 photos uploaded!

Nearby

Snow Depth

Station Depth Elevation
Adin Mountain 0 in 6200 ft
CSS Lab 0 in 6900 ft
Hagan's Meadow 0 in 8000 ft
Summit Meadow 0 in 9122 ft
Leavitt Meadows 0 in 7200 ft

Earthquake Activity

City Distance Mag. Time & Date
Hayfork, California 81 miles 2.7 2:57 PM PDT
2014-08-25
Minimum magnitude displayed is 2.5.

Coastal Water Temperatures

Place Temperature
No Stations Reporting

Nearby Weather Stations